Paradise — 3FOB5 — position and weather

sailwx.info

Track history (hours):
 
Tides and Currents Weather Stations Pressure Air Temp Water Temp Dewpoint Dewpoint Depression Visibility Wind Speed Wind Dir Waves Ship Positions

Paradise

Operator: Carnival Cruise Lines

Last reported at 2019-May-20 16:25 UTC. Time now 2019-May-20 16:46 UTC.
Position N 27°57' W 082°27'.

Type: Passenger vessel. MMSI: 355833000.

Date/timePositionNaut miles runAvg speedWind from/ knotsBaromVisibWave heightAir tempDewpointWater temp
2019-May-20 16:25N 27°57' W 082°27'0 0.0
2019-May-20 15:58N 27°57' W 082°27'0 0.0
2019-May-20 15:28N 27°57' W 082°27'0 0.0
2019-May-20 14:58N 27°57' W 082°27'0 0.0
2019-May-20 14:19N 27°57' W 082°27'0 0.0
2019-May-20 13:52N 27°57' W 082°27'0 0.0
2019-May-20 13:28N 27°57' W 082°27'0 0.0
2019-May-20 12:58N 27°57' W 082°27'0 0.0
2019-May-20 12:22N 27°57' W 082°27'0 0.0
2019-May-20 11:58N 27°57' W 082°27'0 0.0
2019-May-20 11:19N 27°57' W 082°27'0 0.0
2019-May-20 10:58N 27°57' W 082°27'0 0.1
2019-May-20 10:30N 27°57' W 082°27'2 3.9
2019-May-20 10:00N 27°55' W 082°27'4 8.7
2019-May-20 09:30N 27°50' W 082°27'611.1
2019-May-20 09:00N 27°47' W 082°31'713.2
2019-May-20 08:28N 27°41' W 082°35'5612.4
2019-May-20 04:00N 27°00' W 083°18'15 8.8 090 / 51017.010.8 26.023.226.0
2019-May-20 02:20N 26°48' W 083°27'19314.5
2019-May-19 13:00N 23°54' W 085°00'5317.6 110 / 251014.310.8 27.022.826.0
2019-May-19 10:00N 23°06' W 085°24'16416.2 120 / 211012.410.8 27.022.828.0
2019-May-18 23:53N 20°43' W 086°49'1 2.1
2019-May-18 23:28N 20°44' W 086°49'920.1
2019-May-18 23:01N 20°36' W 086°55'815.7
2019-May-18 22:31N 20°29' W 086°59'1 1.0
2019-May-18 21:56N 20°29' W 086°59'0 0.0
2019-May-18 21:29N 20°29' W 086°59'0 0.0
2019-May-18 20:59N 20°29' W 086°59'0 0.0
2019-May-18 20:29N 20°29' W 086°59'0 0.0
2019-May-18 19:59N 20°29' W 086°59'0 0.0
2019-May-18 19:29N 20°29' W 086°59'0 0.0
2019-May-18 18:59N 20°29' W 086°59'0 0.0
2019-May-18 18:29N 20°29' W 086°59'0 0.0
2019-May-18 17:59N 20°29' W 086°59'0 0.0
2019-May-18 17:29N 20°29' W 086°59'0 0.0
2019-May-18 16:59N 20°29' W 086°59'0 0.0
2019-May-18 16:29N 20°29' W 086°59'0 0.0
2019-May-18 15:56N 20°29' W 086°59'0 0.0
2019-May-18 15:29N 20°29' W 086°59'0 0.0
2019-May-18 14:59N 20°29' W 086°59'0 0.0
2019-May-18 14:29N 20°29' W 086°59'0 0.0
2019-May-18 13:59N 20°29' W 086°59'0 0.0
2019-May-18 13:29N 20°29' W 086°59'0 0.0
2019-May-18 12:56N 20°29' W 086°59'0 0.0
2019-May-18 12:29N 20°29' W 086°59'0 0.0
2019-May-18 12:00N 20°29' W 086°59'0 0.0
2019-May-18 11:31N 20°29' W 086°59'2 4.5
2019-May-18 11:00N 20°31' W 086°59'4 8.3
2019-May-18 10:30N 20°34' W 086°56'4 8.2
2019-May-18 10:00N 20°38' W 086°54'7 6.7
2019-May-18 09:00N 20°42' W 086°48'77 9.6 120 / 241010.810.8 28.025.332.0
2019-May-18 01:00N 21°48' W 086°06'3411.4 090 / 151011.710.8 26.023.225.0
2019-May-17 22:00N 22°18' W 085°48'6112.1 060 / 171011.910.8 28.025.330.0
2019-May-17 17:00N 23°12' W 085°18'24716.5 090 / 101014.510.8 27.024.326.0
2019-May-17 02:00N 26°54' W 083°18'1313.1 050 / 101015.710.8 26.023.225.0
2019-May-17 01:00N 27°06' W 083°12'4715.0 050 / 101015.610.8 26.023.225.0
2019-May-16 21:52N 27°40' W 082°36'615.0
2019-May-16 21:30N 27°44' W 082°32'612.4
2019-May-16 21:00N 27°49' W 082°27'611.5
2019-May-16 20:30N 27°55' W 082°26'2 4.1
2019-May-16 20:00N 27°57' W 082°27'0 0.2
2019-May-16 19:30N 27°57' W 082°27'0 0.0
2019-May-16 19:00N 27°57' W 082°27'0 0.0
2019-May-16 18:30N 27°57' W 082°27'0 0.0
2019-May-16 17:54N 27°57' W 082°27'0 0.0
2019-May-16 17:30N 27°57' W 082°27'0 0.0
2019-May-16 17:00N 27°57' W 082°27'0 0.0
2019-May-16 16:30N 27°57' W 082°27'0 0.0
2019-May-16 15:54N 27°57' W 082°27'0 0.0
2019-May-16 15:30N 27°57' W 082°27'0 0.0
2019-May-16 15:00N 27°57' W 082°27'0 0.0
2019-May-16 14:30N 27°57' W 082°27'0 0.0
2019-May-16 14:00N 27°57' W 082°27'0 0.0
2019-May-16 13:30N 27°57' W 082°27'0 0.0
2019-May-16 12:54N 27°57' W 082°27'0 0.0
2019-May-16 12:30N 27°57' W 082°27'0 0.0
2019-May-16 12:00N 27°57' W 082°27'0 0.0
2019-May-16 11:30N 27°57' W 082°27'0 0.0
2019-May-16 11:00N 27°57' W 082°27'0 0.4
2019-May-16 10:30N 27°57' W 082°27'2 3.7
2019-May-16 10:00N 27°55' W 082°26'510.2
2019-May-16 09:31N 27°50' W 082°27'610.9
2019-May-16 09:00N 27°46' W 082°31'713.3
2019-May-16 08:30N 27°40' W 082°36'9314.3
2019-May-16 02:00N 26°24' W 083°36'12615.8 010 / 151015.410.8 27.024.328.0
2019-May-15 18:00N 24°30' W 084°36'12916.1 130 / 151014.410.8 25.022.224.0
2019-May-15 10:00N 22°36' W 085°42'9318.5 120 / 251011.7 5.4 27.024.328.0
2019-May-15 05:00N 21°12' W 086°24'4120.3 140 / 151013.510.8 28.025.327.0
2019-May-15 02:59N 20°41' W 086°52'919.5
2019-May-15 02:31N 20°33' W 086°57'4 8.5
2019-May-15 02:00N 20°29' W 086°59'0 0.1
2019-May-15 01:30N 20°29' W 086°59'0 0.0
2019-May-15 00:57N 20°29' W 086°59'0 0.0
2019-May-15 00:30N 20°29' W 086°59'0 0.0
2019-May-15 00:00N 20°29' W 086°59'0 0.0
2019-May-14 23:30N 20°29' W 086°59'0 0.0
2019-May-14 23:00N 20°29' W 086°59'0 0.0
2019-May-14 22:30N 20°29' W 086°59'0 0.0
2019-May-14 22:00N 20°29' W 086°59'0 0.0
2019-May-14 21:30N 20°29' W 086°59'0 0.0
2019-May-14 21:00N 20°29' W 086°59'0 0.0
2019-May-14 20:30N 20°29' W 086°59'0 0.0
2019-May-14 20:00N 20°29' W 086°59'0 0.0
2019-May-14 19:30N 20°29' W 086°59'0 0.0
2019-May-14 19:00N 20°29' W 086°59'0 0.0
2019-May-14 18:30N 20°29' W 086°59'0 0.0
2019-May-14 17:57N 20°29' W 086°59'0 0.0
2019-May-14 17:30N 20°29' W 086°59'0 0.0
2019-May-14 17:00N 20°29' W 086°59'0 0.0
2019-May-14 16:30N 20°29' W 086°59'0 0.2
2019-May-14 16:00N 20°29' W 086°59'3 6.1
2019-May-14 15:31N 20°32' W 086°58'611.4
2019-May-14 15:00N 20°37' W 086°55'6616.5
2019-May-14 11:00N 21°18' W 086°00'11819.7 140 / 271012.810.8 27.024.328.0
2019-May-14 05:00N 22°42' W 084°30'3015.1 140 / 151014.810.8 27.024.325.0
2019-May-14 03:00N 22°54' W 084°00'7819.6 060 / 81015.3 5.4 28.025.329.0
2019-May-13 23:00N 23°06' W 082°36'35 2.0 240 / 201013.710.8 29.526.227.7
2019-May-13 05:00N 23°18' W 083°12'44 8.8 130 / 101014.410.8 27.024.326.0
2019-May-13 00:00N 23°18' W 084°00'15010.0 030 / 51012.310.8 28.023.927.0
2019-May-12 09:00N 25°48' W 083°54'4711.8 170 / 151013.110.8 26.023.228.0
2019-May-12 05:00N 26°30' W 083°30'3210.6 180 / 151014.510.8 26.023.225.0
2019-May-12 02:00N 27°00' W 083°18'1616.1 180 / 151013.810.8 27.024.324.0
2019-May-12 01:00N 27°12' W 083°06'3912.7 180 / 101014.210.8 27.024.324.0
2019-May-11 21:56N 27°40' W 082°36'613.3
2019-May-11 21:30N 27°44' W 082°32'611.7
2019-May-11 21:00N 27°49' W 082°27'611.9
2019-May-11 20:31N 27°54' W 082°26'2 4.3
2019-May-11 20:00N 27°57' W 082°27'0 0.1
2019-May-11 19:30N 27°57' W 082°27'0 0.0
2019-May-11 18:57N 27°57' W 082°27'0 0.0
2019-May-11 18:27N 27°57' W 082°27'0 0.0
2019-May-11 18:00N 27°57' W 082°27'0 0.0
2019-May-11 17:27N 27°57' W 082°27'0 0.0
2019-May-11 17:00N 27°57' W 082°27'0 0.0
2019-May-11 16:30N 27°57' W 082°27'0 0.0
2019-May-11 16:00N 27°57' W 082°27'0 0.0
2019-May-11 15:27N 27°57' W 082°27'0 0.0
2019-May-11 15:00N 27°57' W 082°27'0 0.0
2019-May-11 14:27N 27°57' W 082°27'0 0.0
2019-May-11 13:57N 27°57' W 082°27'0 0.0
2019-May-11 13:27N 27°57' W 082°27'0 0.0
2019-May-11 12:54N 27°57' W 082°27'0 0.0
2019-May-11 12:30N 27°57' W 082°27'0 0.0
2019-May-11 12:00N 27°57' W 082°27'0 0.0
2019-May-11 11:30N 27°57' W 082°27'0 0.0
2019-May-11 11:00N 27°57' W 082°27'0 0.5
2019-May-11 10:30N 27°56' W 082°27'2 4.2
2019-May-11 10:00N 27°54' W 082°26'510.6
2019-May-11 09:30N 27°49' W 082°27'611.6
2019-May-11 09:00N 27°45' W 082°32'12512.5
2019-May-10 23:00N 26°00' W 083°48'5513.8 110 / 71014.210.8 31.024.226.5
2019-May-10 19:00N 25°12' W 084°18'   130 / 251013.610.8 27.024.326.0
Track history (hours):
 
Tides and Currents Weather Stations Pressure Air Temp Water Temp Dewpoint Dewpoint Depression Visibility Wind Speed Wind Dir Waves Ship Positions

Paradise

Operator: Carnival Cruise Lines

Last reported at 2019-May-20 16:25 UTC. Time now 2019-May-20 16:46 UTC.
Position N 27°57' W 082°27'.

Type: Passenger vessel. MMSI: 355833000.

Date/timePositionNaut miles runAvg speedWind from/ knotsBaromVisibWave heightAir tempDewpointWater temp
2019-May-20 16:25N 27°57' W 082°27'0 0.0
2019-May-20 15:58N 27°57' W 082°27'0 0.0
2019-May-20 15:28N 27°57' W 082°27'0 0.0
2019-May-20 14:58N 27°57' W 082°27'0 0.0
2019-May-20 14:19N 27°57' W 082°27'0 0.0
2019-May-20 13:52N 27°57' W 082°27'0 0.0
2019-May-20 13:28N 27°57' W 082°27'0 0.0
2019-May-20 12:58N 27°57' W 082°27'0 0.0
2019-May-20 12:22N 27°57' W 082°27'0 0.0
2019-May-20 11:58N 27°57' W 082°27'0 0.0
2019-May-20 11:19N 27°57' W 082°27'0 0.0
2019-May-20 10:58N 27°57' W 082°27'0 0.1
2019-May-20 10:30N 27°57' W 082°27'2 3.9
2019-May-20 10:00N 27°55' W 082°27'4 8.7
2019-May-20 09:30N 27°50' W 082°27'611.1
2019-May-20 09:00N 27°47' W 082°31'713.2
2019-May-20 08:28N 27°41' W 082°35'5612.4
2019-May-20 04:00N 27°00' W 083°18'15 8.8 090 / 51017.010.8 26.023.226.0
2019-May-20 02:20N 26°48' W 083°27'19314.5
2019-May-19 13:00N 23°54' W 085°00'5317.6 110 / 251014.310.8 27.022.826.0
2019-May-19 10:00N 23°06' W 085°24'16416.2 120 / 211012.410.8 27.022.828.0
2019-May-18 23:53N 20°43' W 086°49'1 2.1
2019-May-18 23:28N 20°44' W 086°49'920.1
2019-May-18 23:01N 20°36' W 086°55'815.7
2019-May-18 22:31N 20°29' W 086°59'1 1.0
2019-May-18 21:56N 20°29' W 086°59'0 0.0
2019-May-18 21:29N 20°29' W 086°59'0 0.0
2019-May-18 20:59N 20°29' W 086°59'0 0.0
2019-May-18 20:29N 20°29' W 086°59'0 0.0
2019-May-18 19:59N 20°29' W 086°59'0 0.0
2019-May-18 19:29N 20°29' W 086°59'0 0.0
2019-May-18 18:59N 20°29' W 086°59'0 0.0
2019-May-18 18:29N 20°29' W 086°59'0 0.0
2019-May-18 17:59N 20°29' W 086°59'0 0.0
2019-May-18 17:29N 20°29' W 086°59'0 0.0
2019-May-18 16:59N 20°29' W 086°59'0 0.0
2019-May-18 16:29N 20°29' W 086°59'0 0.0
2019-May-18 15:56N 20°29' W 086°59'0 0.0
2019-May-18 15:29N 20°29' W 086°59'0 0.0
2019-May-18 14:59N 20°29' W 086°59'0 0.0
2019-May-18 14:29N 20°29' W 086°59'0 0.0
2019-May-18 13:59N 20°29' W 086°59'0 0.0
2019-May-18 13:29N 20°29' W 086°59'0 0.0
2019-May-18 12:56N 20°29' W 086°59'0 0.0
2019-May-18 12:29N 20°29' W 086°59'0 0.0
2019-May-18 12:00N 20°29' W 086°59'0 0.0
2019-May-18 11:31N 20°29' W 086°59'2 4.5
2019-May-18 11:00N 20°31' W 086°59'4 8.3
2019-May-18 10:30N 20°34' W 086°56'4 8.2
2019-May-18 10:00N 20°38' W 086°54'7 6.7
2019-May-18 09:00N 20°42' W 086°48'77 9.6 120 / 241010.810.8 28.025.332.0
2019-May-18 01:00N 21°48' W 086°06'3411.4 090 / 151011.710.8 26.023.225.0
2019-May-17 22:00N 22°18' W 085°48'6112.1 060 / 171011.910.8 28.025.330.0
2019-May-17 17:00N 23°12' W 085°18'24716.5 090 / 101014.510.8 27.024.326.0
2019-May-17 02:00N 26°54' W 083°18'1313.1 050 / 101015.710.8 26.023.225.0
2019-May-17 01:00N 27°06' W 083°12'4715.0 050 / 101015.610.8 26.023.225.0
2019-May-16 21:52N 27°40' W 082°36'615.0
2019-May-16 21:30N 27°44' W 082°32'612.4
2019-May-16 21:00N 27°49' W 082°27'611.5
2019-May-16 20:30N 27°55' W 082°26'2 4.1
2019-May-16 20:00N 27°57' W 082°27'0 0.2
2019-May-16 19:30N 27°57' W 082°27'0 0.0
2019-May-16 19:00N 27°57' W 082°27'0 0.0
2019-May-16 18:30N 27°57' W 082°27'0 0.0
2019-May-16 17:54N 27°57' W 082°27'0 0.0
2019-May-16 17:30N 27°57' W 082°27'0 0.0
2019-May-16 17:00N 27°57' W 082°27'0 0.0
2019-May-16 16:30N 27°57' W 082°27'0 0.0
2019-May-16 15:54N 27°57' W 082°27'0 0.0
2019-May-16 15:30N 27°57' W 082°27'0 0.0
2019-May-16 15:00N 27°57' W 082°27'0 0.0
2019-May-16 14:30N 27°57' W 082°27'0 0.0
2019-May-16 14:00N 27°57' W 082°27'0 0.0
2019-May-16 13:30N 27°57' W 082°27'0 0.0
2019-May-16 12:54N 27°57' W 082°27'0 0.0
2019-May-16 12:30N 27°57' W 082°27'0 0.0
2019-May-16 12:00N 27°57' W 082°27'0 0.0
2019-May-16 11:30N 27°57' W 082°27'0 0.0
2019-May-16 11:00N 27°57' W 082°27'0 0.4
2019-May-16 10:30N 27°57' W 082°27'2 3.7
2019-May-16 10:00N 27°55' W 082°26'510.2
2019-May-16 09:31N 27°50' W 082°27'610.9
2019-May-16 09:00N 27°46' W 082°31'713.3
2019-May-16 08:30N 27°40' W 082°36'9314.3
2019-May-16 02:00N 26°24' W 083°36'12615.8 010 / 151015.410.8 27.024.328.0
2019-May-15 18:00N 24°30' W 084°36'12916.1 130 / 151014.410.8 25.022.224.0
2019-May-15 10:00N 22°36' W 085°42'9318.5 120 / 251011.7 5.4 27.024.328.0
2019-May-15 05:00N 21°12' W 086°24'4120.3 140 / 151013.510.8 28.025.327.0
2019-May-15 02:59N 20°41' W 086°52'919.5
2019-May-15 02:31N 20°33' W 086°57'4 8.5
2019-May-15 02:00N 20°29' W 086°59'0 0.1
2019-May-15 01:30N 20°29' W 086°59'0 0.0
2019-May-15 00:57N 20°29' W 086°59'0 0.0
2019-May-15 00:30N 20°29' W 086°59'0 0.0
2019-May-15 00:00N 20°29' W 086°59'0 0.0
2019-May-14 23:30N 20°29' W 086°59'0 0.0
2019-May-14 23:00N 20°29' W 086°59'0 0.0
2019-May-14 22:30N 20°29' W 086°59'0 0.0
2019-May-14 22:00N 20°29' W 086°59'0 0.0
2019-May-14 21:30N 20°29' W 086°59'0 0.0
2019-May-14 21:00N 20°29' W 086°59'0 0.0
2019-May-14 20:30N 20°29' W 086°59'0 0.0
2019-May-14 20:00N 20°29' W 086°59'0 0.0
2019-May-14 19:30N 20°29' W 086°59'0 0.0
2019-May-14 19:00N 20°29' W 086°59'0 0.0
2019-May-14 18:30N 20°29' W 086°59'0 0.0
2019-May-14 17:57N 20°29' W 086°59'0 0.0
2019-May-14 17:30N 20°29' W 086°59'0 0.0
2019-May-14 17:00N 20°29' W 086°59'0 0.0
2019-May-14 16:30N 20°29' W 086°59'0 0.2
2019-May-14 16:00N 20°29' W 086°59'3 6.1
2019-May-14 15:31N 20°32' W 086°58'611.4
2019-May-14 15:00N 20°37' W 086°55'6616.5
2019-May-14 11:00N 21°18' W 086°00'11819.7 140 / 271012.810.8 27.024.328.0
2019-May-14 05:00N 22°42' W 084°30'3015.1 140 / 151014.810.8 27.024.325.0
2019-May-14 03:00N 22°54' W 084°00'7819.6 060 / 81015.3 5.4 28.025.329.0
2019-May-13 23:00N 23°06' W 082°36'35 2.0 240 / 201013.710.8 29.526.227.7
2019-May-13 05:00N 23°18' W 083°12'44 8.8 130 / 101014.410.8 27.024.326.0
2019-May-13 00:00N 23°18' W 084°00'15010.0 030 / 51012.310.8 28.023.927.0
2019-May-12 09:00N 25°48' W 083°54'4711.8 170 / 151013.110.8 26.023.228.0
2019-May-12 05:00N 26°30' W 083°30'3210.6 180 / 151014.510.8 26.023.225.0
2019-May-12 02:00N 27°00' W 083°18'1616.1 180 / 151013.810.8 27.024.324.0
2019-May-12 01:00N 27°12' W 083°06'3912.7 180 / 101014.210.8 27.024.324.0
2019-May-11 21:56N 27°40' W 082°36'613.3
2019-May-11 21:30N 27°44' W 082°32'611.7
2019-May-11 21:00N 27°49' W 082°27'611.9
2019-May-11 20:31N 27°54' W 082°26'2 4.3
2019-May-11 20:00N 27°57' W 082°27'0 0.1
2019-May-11 19:30N 27°57' W 082°27'0 0.0
2019-May-11 18:57N 27°57' W 082°27'0 0.0
2019-May-11 18:27N 27°57' W 082°27'0 0.0
2019-May-11 18:00N 27°57' W 082°27'0 0.0
2019-May-11 17:27N 27°57' W 082°27'0 0.0
2019-May-11 17:00N 27°57' W 082°27'0 0.0
2019-May-11 16:30N 27°57' W 082°27'0 0.0
2019-May-11 16:00N 27°57' W 082°27'0 0.0
2019-May-11 15:27N 27°57' W 082°27'0 0.0
2019-May-11 15:00N 27°57' W 082°27'0 0.0
2019-May-11 14:27N 27°57' W 082°27'0 0.0
2019-May-11 13:57N 27°57' W 082°27'0 0.0
2019-May-11 13:27N 27°57' W 082°27'0 0.0
2019-May-11 12:54N 27°57' W 082°27'0 0.0
2019-May-11 12:30N 27°57' W 082°27'0 0.0
2019-May-11 12:00N 27°57' W 082°27'0 0.0
2019-May-11 11:30N 27°57' W 082°27'0 0.0
2019-May-11 11:00N 27°57' W 082°27'0 0.5
2019-May-11 10:30N 27°56' W 082°27'2 4.2
2019-May-11 10:00N 27°54' W 082°26'510.6
2019-May-11 09:30N 27°49' W 082°27'611.6
2019-May-11 09:00N 27°45' W 082°32'12512.5
2019-May-10 23:00N 26°00' W 083°48'5513.8 110 / 71014.210.8 31.024.226.5
2019-May-10 19:00N 25°12' W 084°18'   130 / 251013.610.8 27.024.326.0

Dump ship's entire track history